sensor_id;sensor_type;location;lat;lon;timestamp;temperature;humidity
4615;DHT22;2320;51.362;6.946;2023-07-29T00:00:42;19.30;99.90
4615;DHT22;2320;51.362;6.946;2023-07-29T00:03:08;19.20;99.90
4615;DHT22;2320;51.362;6.946;2023-07-29T00:05:33;19.20;99.90
4615;DHT22;2320;51.362;6.946;2023-07-29T00:07:59;19.30;99.90
4615;DHT22;2320;51.362;6.946;2023-07-29T00:10:25;19.30;99.90
4615;DHT22;2320;51.362;6.946;2023-07-29T00:12:50;19.30;99.90
4615;DHT22;2320;51.362;6.946;2023-07-29T00:15:16;19.30;99.90
4615;DHT22;2320;51.362;6.946;2023-07-29T00:17:41;19.30;99.90
4615;DHT22;2320;51.362;6.946;2023-07-29T00:20:07;19.40;99.90
4615;DHT22;2320;51.362;6.946;2023-07-29T00:22:32;19.30;99.90
4615;DHT22;2320;51.362;6.946;2023-07-29T00:24:58;19.30;99.90
4615;DHT22;2320;51.362;6.946;2023-07-29T00:27:24;19.40;99.90
4615;DHT22;2320;51.362;6.946;2023-07-29T00:29:50;19.40;99.90
4615;DHT22;2320;51.362;6.946;2023-07-29T00:32:15;19.40;99.90
4615;DHT22;2320;51.362;6.946;2023-07-29T00:34:41;19.40;99.90
4615;DHT22;2320;51.362;6.946;2023-07-29T00:37:06;19.50;99.90
4615;DHT22;2320;51.362;6.946;2023-07-29T00:39:32;19.50;99.90
4615;DHT22;2320;51.362;6.946;2023-07-29T00:41:57;19.50;99.90
4615;DHT22;2320;51.362;6.946;2023-07-29T00:44:23;19.50;99.90
4615;DHT22;2320;51.362;6.946;2023-07-29T00:46:50;19.60;99.90
4615;DHT22;2320;51.362;6.946;2023-07-29T00:49:16;19.50;99.90
4615;DHT22;2320;51.362;6.946;2023-07-29T00:51:41;19.50;99.90
4615;DHT22;2320;51.362;6.946;2023-07-29T00:54:06;19.40;99.90
4615;DHT22;2320;51.362;6.946;2023-07-29T00:56:32;19.40;99.90
4615;DHT22;2320;51.362;6.946;2023-07-29T00:58:58;19.40;99.90
4615;DHT22;2320;51.362;6.946;2023-07-29T01:01:27;19.30;99.90
4615;DHT22;2320;51.362;6.946;2023-07-29T01:03:53;19.40;99.90
4615;DHT22;2320;51.362;6.946;2023-07-29T01:06:22;19.40;99.90
4615;DHT22;2320;51.362;6.946;2023-07-29T01:11:34;19.40;99.90
4615;DHT22;2320;51.362;6.946;2023-07-29T01:14:04;19.40;99.90
4615;DHT22;2320;51.362;6.946;2023-07-29T01:16:34;19.40;99.90
4615;DHT22;2320;51.362;6.946;2023-07-29T01:19:04;19.40;99.90
4615;DHT22;2320;51.362;6.946;2023-07-29T01:21:30;19.40;99.90
4615;DHT22;2320;51.362;6.946;2023-07-29T01:23:58;19.50;99.90
4615;DHT22;2320;51.362;6.946;2023-07-29T01:26:25;19.40;99.90
4615;DHT22;2320;51.362;6.946;2023-07-29T01:28:50;19.40;99.90
4615;DHT22;2320;51.362;6.946;2023-07-29T01:31:21;19.40;99.90
4615;DHT22;2320;51.362;6.946;2023-07-29T01:33:52;19.40;99.90
4615;DHT22;2320;51.362;6.946;2023-07-29T01:36:20;19.40;99.90
4615;DHT22;2320;51.362;6.946;2023-07-29T01:38:46;19.40;99.90
4615;DHT22;2320;51.362;6.946;2023-07-29T01:41:13;19.50;99.90
4615;DHT22;2320;51.362;6.946;2023-07-29T01:43:39;19.60;99.90
4615;DHT22;2320;51.362;6.946;2023-07-29T01:46:12;19.50;99.90
4615;DHT22;2320;51.362;6.946;2023-07-29T01:48:37;19.50;99.90
4615;DHT22;2320;51.362;6.946;2023-07-29T01:51:03;19.40;99.90
4615;DHT22;2320;51.362;6.946;2023-07-29T01:53:29;19.60;99.90
4615;DHT22;2320;51.362;6.946;2023-07-29T01:55:54;19.60;99.90
4615;DHT22;2320;51.362;6.946;2023-07-29T01:58:19;19.60;99.90
4615;DHT22;2320;51.362;6.946;2023-07-29T02:00:45;19.60;99.90
4615;DHT22;2320;51.362;6.946;2023-07-29T02:03:10;19.60;99.90
4615;DHT22;2320;51.362;6.946;2023-07-29T02:05:36;19.60;99.90
4615;DHT22;2320;51.362;6.946;2023-07-29T02:08:01;19.60;99.90
4615;DHT22;2320;51.362;6.946;2023-07-29T02:10:27;19.50;99.90
4615;DHT22;2320;51.362;6.946;2023-07-29T02:12:52;19.50;99.90
4615;DHT22;2320;51.362;6.946;2023-07-29T02:15:18;19.60;99.90
4615;DHT22;2320;51.362;6.946;2023-07-29T02:17:43;19.50;99.90
4615;DHT22;2320;51.362;6.946;2023-07-29T02:20:09;19.60;99.90
4615;DHT22;2320;51.362;6.946;2023-07-29T02:22:36;19.50;99.90
4615;DHT22;2320;51.362;6.946;2023-07-29T02:25:01;19.50;99.90
4615;DHT22;2320;51.362;6.946;2023-07-29T02:27:27;19.60;99.90
4615;DHT22;2320;51.362;6.946;2023-07-29T02:29:53;19.60;99.90
4615;DHT22;2320;51.362;6.946;2023-07-29T02:32:19;19.60;99.90
4615;DHT22;2320;51.362;6.946;2023-07-29T02:34:44;19.70;99.90
4615;DHT22;2320;51.362;6.946;2023-07-29T02:37:10;19.70;99.90
4615;DHT22;2320;51.362;6.946;2023-07-29T02:39:36;19.70;99.90
4615;DHT22;2320;51.362;6.946;2023-07-29T02:42:01;19.70;99.90
4615;DHT22;2320;51.362;6.946;2023-07-29T02:44:27;19.80;99.90
4615;DHT22;2320;51.362;6.946;2023-07-29T02:46:52;19.90;99.90
4615;DHT22;2320;51.362;6.946;2023-07-29T02:49:19;19.90;99.90
4615;DHT22;2320;51.362;6.946;2023-07-29T02:51:45;19.90;99.90
4615;DHT22;2320;51.362;6.946;2023-07-29T02:54:10;19.90;99.90
4615;DHT22;2320;51.362;6.946;2023-07-29T02:56:36;19.90;99.90
4615;DHT22;2320;51.362;6.946;2023-07-29T02:59:01;19.90;99.90
4615;DHT22;2320;51.362;6.946;2023-07-29T03:01:27;19.90;99.90
4615;DHT22;2320;51.362;6.946;2023-07-29T03:03:52;19.80;99.90
4615;DHT22;2320;51.362;6.946;2023-07-29T03:06:18;19.90;99.90
4615;DHT22;2320;51.362;6.946;2023-07-29T03:08:44;19.80;99.90
4615;DHT22;2320;51.362;6.946;2023-07-29T03:11:12;19.70;99.90
4615;DHT22;2320;51.362;6.946;2023-07-29T03:13:37;19.80;99.90
4615;DHT22;2320;51.362;6.946;2023-07-29T03:16:07;19.70;99.90
4615;DHT22;2320;51.362;6.946;2023-07-29T03:18:32;19.70;99.90
4615;DHT22;2320;51.362;6.946;2023-07-29T03:20:58;19.70;99.90
4615;DHT22;2320;51.362;6.946;2023-07-29T03:23:23;19.60;99.90
4615;DHT22;2320;51.362;6.946;2023-07-29T03:25:49;19.70;99.90
4615;DHT22;2320;51.362;6.946;2023-07-29T03:28:16;19.70;99.90
4615;DHT22;2320;51.362;6.946;2023-07-29T03:30:42;19.60;99.90
4615;DHT22;2320;51.362;6.946;2023-07-29T03:33:07;19.50;99.90
4615;DHT22;2320;51.362;6.946;2023-07-29T03:35:33;19.60;99.90
4615;DHT22;2320;51.362;6.946;2023-07-29T03:37:58;19.70;99.90
4615;DHT22;2320;51.362;6.946;2023-07-29T03:40:23;19.60;99.90
4615;DHT22;2320;51.362;6.946;2023-07-29T03:42:49;19.70;99.90
4615;DHT22;2320;51.362;6.946;2023-07-29T03:45:14;19.70;99.90
4615;DHT22;2320;51.362;6.946;2023-07-29T03:47:40;19.70;99.90
4615;DHT22;2320;51.362;6.946;2023-07-29T03:50:05;19.70;99.90
4615;DHT22;2320;51.362;6.946;2023-07-29T03:52:31;19.70;99.90
4615;DHT22;2320;51.362;6.946;2023-07-29T03:54:56;19.70;99.90
4615;DHT22;2320;51.362;6.946;2023-07-29T03:57:22;19.60;99.90
4615;DHT22;2320;51.362;6.946;2023-07-29T03:59:47;19.50;99.90
4615;DHT22;2320;51.362;6.946;2023-07-29T04:02:13;19.50;99.90
4615;DHT22;2320;51.362;6.946;2023-07-29T04:04:39;19.40;99.90
4615;DHT22;2320;51.362;6.946;2023-07-29T04:07:07;19.30;99.90
4615;DHT22;2320;51.362;6.946;2023-07-29T04:09:32;19.30;99.90
4615;DHT22;2320;51.362;6.946;2023-07-29T04:11:58;19.40;99.90
4615;DHT22;2320;51.362;6.946;2023-07-29T04:14:23;19.50;99.90
4615;DHT22;2320;51.362;6.946;2023-07-29T04:16:49;19.60;99.90
4615;DHT22;2320;51.362;6.946;2023-07-29T04:19:14;19.50;99.90
4615;DHT22;2320;51.362;6.946;2023-07-29T04:21:40;19.50;99.90
4615;DHT22;2320;51.362;6.946;2023-07-29T04:24:05;19.60;99.90
4615;DHT22;2320;51.362;6.946;2023-07-29T04:26:30;19.70;99.90
4615;DHT22;2320;51.362;6.946;2023-07-29T04:28:56;19.70;99.90
4615;DHT22;2320;51.362;6.946;2023-07-29T04:31:21;19.60;99.90
4615;DHT22;2320;51.362;6.946;2023-07-29T04:33:47;19.50;99.90
4615;DHT22;2320;51.362;6.946;2023-07-29T04:36:12;19.60;99.90
4615;DHT22;2320;51.362;6.946;2023-07-29T04:38:37;19.50;99.90
4615;DHT22;2320;51.362;6.946;2023-07-29T04:41:03;19.40;99.90
4615;DHT22;2320;51.362;6.946;2023-07-29T04:43:32;19.50;99.90
4615;DHT22;2320;51.362;6.946;2023-07-29T04:45:58;19.50;99.90
4615;DHT22;2320;51.362;6.946;2023-07-29T04:48:23;19.40;99.90
4615;DHT22;2320;51.362;6.946;2023-07-29T04:50:49;19.40;99.90
4615;DHT22;2320;51.362;6.946;2023-07-29T04:53:14;19.40;99.90
4615;DHT22;2320;51.362;6.946;2023-07-29T04:55:42;19.40;99.90
4615;DHT22;2320;51.362;6.946;2023-07-29T04:58:08;19.40;99.90
4615;DHT22;2320;51.362;6.946;2023-07-29T05:00:34;19.30;99.90
4615;DHT22;2320;51.362;6.946;2023-07-29T05:02:59;19.30;99.90
4615;DHT22;2320;51.362;6.946;2023-07-29T05:05:26;19.20;99.90
4615;DHT22;2320;51.362;6.946;2023-07-29T05:07:51;19.20;99.90
4615;DHT22;2320;51.362;6.946;2023-07-29T05:10:17;19.40;99.90
4615;DHT22;2320;51.362;6.946;2023-07-29T05:12:42;19.30;99.90
4615;DHT22;2320;51.362;6.946;2023-07-29T05:15:08;19.30;99.90
4615;DHT22;2320;51.362;6.946;2023-07-29T05:17:33;19.40;99.90
4615;DHT22;2320;51.362;6.946;2023-07-29T05:19:59;19.50;99.90
4615;DHT22;2320;51.362;6.946;2023-07-29T05:22:24;19.40;99.90
4615;DHT22;2320;51.362;6.946;2023-07-29T05:24:50;19.60;99.90
4615;DHT22;2320;51.362;6.946;2023-07-29T05:27:15;19.60;99.90
4615;DHT22;2320;51.362;6.946;2023-07-29T05:29:41;19.70;99.90
4615;DHT22;2320;51.362;6.946;2023-07-29T05:32:07;19.80;99.90
4615;DHT22;2320;51.362;6.946;2023-07-29T05:34:32;20.00;99.90
4615;DHT22;2320;51.362;6.946;2023-07-29T05:36:57;20.00;99.90
4615;DHT22;2320;51.362;6.946;2023-07-29T05:39:23;20.10;99.90
4615;DHT22;2320;51.362;6.946;2023-07-29T05:41:49;20.10;99.90
4615;DHT22;2320;51.362;6.946;2023-07-29T05:44:15;20.10;99.90
4615;DHT22;2320;51.362;6.946;2023-07-29T05:46:40;20.30;99.90
4615;DHT22;2320;51.362;6.946;2023-07-29T05:49:05;20.20;99.90
4615;DHT22;2320;51.362;6.946;2023-07-29T05:51:31;20.20;99.90
4615;DHT22;2320;51.362;6.946;2023-07-29T05:53:56;20.20;99.90
4615;DHT22;2320;51.362;6.946;2023-07-29T05:56:22;20.10;99.90
4615;DHT22;2320;51.362;6.946;2023-07-29T05:58:47;20.00;99.90
4615;DHT22;2320;51.362;6.946;2023-07-29T06:01:13;20.00;99.90
4615;DHT22;2320;51.362;6.946;2023-07-29T06:03:38;19.80;99.90
4615;DHT22;2320;51.362;6.946;2023-07-29T06:06:04;19.70;99.90
4615;DHT22;2320;51.362;6.946;2023-07-29T06:08:29;19.70;99.90
4615;DHT22;2320;51.362;6.946;2023-07-29T06:10:55;19.80;99.90
4615;DHT22;2320;51.362;6.946;2023-07-29T06:13:20;19.80;99.90
4615;DHT22;2320;51.362;6.946;2023-07-29T06:15:46;19.70;99.90
4615;DHT22;2320;51.362;6.946;2023-07-29T06:18:11;19.90;99.90
4615;DHT22;2320;51.362;6.946;2023-07-29T06:20:36;20.00;99.90
4615;DHT22;2320;51.362;6.946;2023-07-29T06:23:02;20.00;99.90
4615;DHT22;2320;51.362;6.946;2023-07-29T06:25:27;20.20;99.90
4615;DHT22;2320;51.362;6.946;2023-07-29T06:27:53;20.30;99.90
4615;DHT22;2320;51.362;6.946;2023-07-29T06:30:18;20.40;99.90
4615;DHT22;2320;51.362;6.946;2023-07-29T06:32:44;20.50;99.90
4615;DHT22;2320;51.362;6.946;2023-07-29T06:35:09;20.50;99.90
4615;DHT22;2320;51.362;6.946;2023-07-29T06:37:35;20.50;99.90
4615;DHT22;2320;51.362;6.946;2023-07-29T06:40:00;20.70;99.90
4615;DHT22;2320;51.362;6.946;2023-07-29T06:42:26;21.20;99.90
4615;DHT22;2320;51.362;6.946;2023-07-29T06:44:51;21.50;99.90
4615;DHT22;2320;51.362;6.946;2023-07-29T06:47:17;21.70;99.90
4615;DHT22;2320;51.362;6.946;2023-07-29T06:49:42;21.80;99.90
4615;DHT22;2320;51.362;6.946;2023-07-29T06:52:08;21.70;99.90
4615;DHT22;2320;51.362;6.946;2023-07-29T06:54:33;21.80;99.90
4615;DHT22;2320;51.362;6.946;2023-07-29T06:56:58;21.80;99.90
4615;DHT22;2320;51.362;6.946;2023-07-29T06:59:24;21.90;99.90
4615;DHT22;2320;51.362;6.946;2023-07-29T07:01:51;22.00;99.90
4615;DHT22;2320;51.362;6.946;2023-07-29T07:04:16;22.30;99.90
4615;DHT22;2320;51.362;6.946;2023-07-29T07:06:41;22.90;99.90
4615;DHT22;2320;51.362;6.946;2023-07-29T07:09:07;23.50;99.90
4615;DHT22;2320;51.362;6.946;2023-07-29T07:11:32;24.00;99.90
4615;DHT22;2320;51.362;6.946;2023-07-29T07:13:58;24.10;99.90
4615;DHT22;2320;51.362;6.946;2023-07-29T07:16:23;24.90;99.90
4615;DHT22;2320;51.362;6.946;2023-07-29T07:18:49;25.80;99.90
4615;DHT22;2320;51.362;6.946;2023-07-29T07:21:14;26.60;99.90
4615;DHT22;2320;51.362;6.946;2023-07-29T07:23:40;27.90;99.90
4615;DHT22;2320;51.362;6.946;2023-07-29T07:26:05;28.50;99.90
4615;DHT22;2320;51.362;6.946;2023-07-29T07:28:31;28.00;99.90
4615;DHT22;2320;51.362;6.946;2023-07-29T07:30:56;27.80;99.90
4615;DHT22;2320;51.362;6.946;2023-07-29T07:33:22;27.50;99.90
4615;DHT22;2320;51.362;6.946;2023-07-29T07:35:47;27.70;99.90
4615;DHT22;2320;51.362;6.946;2023-07-29T07:38:13;28.80;99.90
4615;DHT22;2320;51.362;6.946;2023-07-29T07:40:38;29.60;99.90
4615;DHT22;2320;51.362;6.946;2023-07-29T07:43:04;29.80;99.90
4615;DHT22;2320;51.362;6.946;2023-07-29T07:45:29;29.50;99.90
4615;DHT22;2320;51.362;6.946;2023-07-29T07:47:55;29.20;99.90
4615;DHT22;2320;51.362;6.946;2023-07-29T07:50:21;28.50;99.90
4615;DHT22;2320;51.362;6.946;2023-07-29T07:52:46;28.10;99.90
4615;DHT22;2320;51.362;6.946;2023-07-29T07:55:12;27.60;99.90
4615;DHT22;2320;51.362;6.946;2023-07-29T07:57:37;27.10;99.90
4615;DHT22;2320;51.362;6.946;2023-07-29T08:00:03;28.00;99.90
4615;DHT22;2320;51.362;6.946;2023-07-29T08:02:29;28.80;99.90
4615;DHT22;2320;51.362;6.946;2023-07-29T08:04:55;29.90;99.90
4615;DHT22;2320;51.362;6.946;2023-07-29T08:07:20;30.70;99.90
4615;DHT22;2320;51.362;6.946;2023-07-29T08:09:46;31.10;99.90
4615;DHT22;2320;51.362;6.946;2023-07-29T08:12:11;31.70;99.90
4615;DHT22;2320;51.362;6.946;2023-07-29T08:14:37;31.10;99.90
4615;DHT22;2320;51.362;6.946;2023-07-29T08:17:02;30.20;99.90
4615;DHT22;2320;51.362;6.946;2023-07-29T08:19:28;29.90;99.90
4615;DHT22;2320;51.362;6.946;2023-07-29T08:21:53;29.90;99.90
4615;DHT22;2320;51.362;6.946;2023-07-29T08:24:19;29.20;99.90
4615;DHT22;2320;51.362;6.946;2023-07-29T08:26:44;29.10;99.90
4615;DHT22;2320;51.362;6.946;2023-07-29T08:29:11;30.10;99.90
4615;DHT22;2320;51.362;6.946;2023-07-29T08:31:36;30.80;99.90
4615;DHT22;2320;51.362;6.946;2023-07-29T08:34:02;30.50;99.90
4615;DHT22;2320;51.362;6.946;2023-07-29T08:36:27;31.80;99.90
4615;DHT22;2320;51.362;6.946;2023-07-29T08:38:52;32.50;99.90
4615;DHT22;2320;51.362;6.946;2023-07-29T08:41:24;33.20;99.90
4615;DHT22;2320;51.362;6.946;2023-07-29T08:43:52;33.00;99.90
4615;DHT22;2320;51.362;6.946;2023-07-29T08:46:18;32.30;99.90
4615;DHT22;2320;51.362;6.946;2023-07-29T08:48:44;32.20;99.90
4615;DHT22;2320;51.362;6.946;2023-07-29T08:51:11;32.50;99.90
4615;DHT22;2320;51.362;6.946;2023-07-29T08:53:37;32.70;99.90
4615;DHT22;2320;51.362;6.946;2023-07-29T08:56:02;32.70;99.90
4615;DHT22;2320;51.362;6.946;2023-07-29T08:58:28;33.50;99.90
4615;DHT22;2320;51.362;6.946;2023-07-29T09:00:54;34.50;99.90
4615;DHT22;2320;51.362;6.946;2023-07-29T09:03:20;34.80;99.90
4615;DHT22;2320;51.362;6.946;2023-07-29T09:05:45;35.30;99.90
4615;DHT22;2320;51.362;6.946;2023-07-29T09:08:11;35.40;99.90
4615;DHT22;2320;51.362;6.946;2023-07-29T09:10:37;35.70;99.90
4615;DHT22;2320;51.362;6.946;2023-07-29T09:13:03;35.30;99.90
4615;DHT22;2320;51.362;6.946;2023-07-29T09:15:29;35.90;99.90
4615;DHT22;2320;51.362;6.946;2023-07-29T09:17:55;36.00;99.90
4615;DHT22;2320;51.362;6.946;2023-07-29T09:20:25;35.60;99.90
4615;DHT22;2320;51.362;6.946;2023-07-29T09:22:51;35.20;99.90
4615;DHT22;2320;51.362;6.946;2023-07-29T09:25:21;34.60;98.70
4615;DHT22;2320;51.362;6.946;2023-07-29T09:27:47;33.50;99.90
4615;DHT22;2320;51.362;6.946;2023-07-29T09:30:16;32.30;99.90
4615;DHT22;2320;51.362;6.946;2023-07-29T09:32:41;31.20;99.90
4615;DHT22;2320;51.362;6.946;2023-07-29T09:35:10;29.70;99.90
4615;DHT22;2320;51.362;6.946;2023-07-29T09:37:37;29.00;99.90
4615;DHT22;2320;51.362;6.946;2023-07-29T09:40:03;28.30;99.90
4615;DHT22;2320;51.362;6.946;2023-07-29T09:42:29;27.90;99.90
4615;DHT22;2320;51.362;6.946;2023-07-29T09:44:54;27.30;99.90
4615;DHT22;2320;51.362;6.946;2023-07-29T09:47:20;27.00;99.90
4615;DHT22;2320;51.362;6.946;2023-07-29T09:49:46;26.60;99.90
4615;DHT22;2320;51.362;6.946;2023-07-29T09:52:13;26.50;99.90
4615;DHT22;2320;51.362;6.946;2023-07-29T09:54:39;26.40;99.90
4615;DHT22;2320;51.362;6.946;2023-07-29T09:57:05;26.10;99.90
4615;DHT22;2320;51.362;6.946;2023-07-29T09:59:35;26.00;99.90
4615;DHT22;2320;51.362;6.946;2023-07-29T10:02:01;25.80;99.90
4615;DHT22;2320;51.362;6.946;2023-07-29T10:04:26;25.90;99.90
4615;DHT22;2320;51.362;6.946;2023-07-29T10:06:52;26.00;99.90
4615;DHT22;2320;51.362;6.946;2023-07-29T10:09:18;27.20;99.90
4615;DHT22;2320;51.362;6.946;2023-07-29T10:11:44;28.00;99.90
4615;DHT22;2320;51.362;6.946;2023-07-29T10:14:09;29.50;99.90
4615;DHT22;2320;51.362;6.946;2023-07-29T10:16:36;30.50;99.90
4615;DHT22;2320;51.362;6.946;2023-07-29T10:19:01;31.30;99.90
4615;DHT22;2320;51.362;6.946;2023-07-29T10:21:27;31.40;99.90
4615;DHT22;2320;51.362;6.946;2023-07-29T10:23:55;31.10;99.90
4615;DHT22;2320;51.362;6.946;2023-07-29T10:26:22;30.40;99.90
4615;DHT22;2320;51.362;6.946;2023-07-29T10:28:47;30.70;99.90
4615;DHT22;2320;51.362;6.946;2023-07-29T10:31:17;30.30;99.90
4615;DHT22;2320;51.362;6.946;2023-07-29T10:33:42;29.80;99.90
4615;DHT22;2320;51.362;6.946;2023-07-29T10:36:09;29.40;99.90
4615;DHT22;2320;51.362;6.946;2023-07-29T10:38:34;28.90;99.90
4615;DHT22;2320;51.362;6.946;2023-07-29T10:41:00;29.00;99.90
4615;DHT22;2320;51.362;6.946;2023-07-29T10:45:51;28.30;99.90
4615;DHT22;2320;51.362;6.946;2023-07-29T10:51:42;27.30;99.90
4615;DHT22;2320;51.362;6.946;2023-07-29T10:53:43;26.90;99.90
4615;DHT22;2320;51.362;6.946;2023-07-29T10:56:08;26.90;99.90
4615;DHT22;2320;51.362;6.946;2023-07-29T10:58:34;27.70;99.90
4615;DHT22;2320;51.362;6.946;2023-07-29T11:00:59;28.90;99.90
4615;DHT22;2320;51.362;6.946;2023-07-29T11:03:25;29.60;99.90
4615;DHT22;2320;51.362;6.946;2023-07-29T11:05:54;30.00;99.90
4615;DHT22;2320;51.362;6.946;2023-07-29T11:10:57;30.40;99.90
4615;DHT22;2320;51.362;6.946;2023-07-29T11:13:23;30.50;99.90
4615;DHT22;2320;51.362;6.946;2023-07-29T11:15:48;31.10;99.90
4615;DHT22;2320;51.362;6.946;2023-07-29T11:18:15;31.00;99.90
4615;DHT22;2320;51.362;6.946;2023-07-29T11:20:41;31.20;99.90
4615;DHT22;2320;51.362;6.946;2023-07-29T11:23:06;30.70;99.90
4615;DHT22;2320;51.362;6.946;2023-07-29T11:25:32;30.20;99.90
4615;DHT22;2320;51.362;6.946;2023-07-29T11:28:01;29.70;99.90
4615;DHT22;2320;51.362;6.946;2023-07-29T11:30:26;28.40;99.90
4615;DHT22;2320;51.362;6.946;2023-07-29T11:32:53;27.80;99.90
4615;DHT22;2320;51.362;6.946;2023-07-29T11:35:18;27.40;99.90
4615;DHT22;2320;51.362;6.946;2023-07-29T11:37:45;27.20;99.90
4615;DHT22;2320;51.362;6.946;2023-07-29T11:40:13;26.80;99.90
4615;DHT22;2320;51.362;6.946;2023-07-29T11:42:39;26.80;99.90
4615;DHT22;2320;51.362;6.946;2023-07-29T11:45:04;26.60;99.90
4615;DHT22;2320;51.362;6.946;2023-07-29T11:47:32;27.10;99.90
4615;DHT22;2320;51.362;6.946;2023-07-29T11:50:01;27.50;99.90
4615;DHT22;2320;51.362;6.946;2023-07-29T11:52:27;27.60;99.90
4615;DHT22;2320;51.362;6.946;2023-07-29T11:54:52;27.90;99.90
4615;DHT22;2320;51.362;6.946;2023-07-29T11:57:18;27.80;99.90
4615;DHT22;2320;51.362;6.946;2023-07-29T11:59:43;26.90;99.90
4615;DHT22;2320;51.362;6.946;2023-07-29T12:02:16;26.80;99.90
4615;DHT22;2320;51.362;6.946;2023-07-29T12:04:41;26.80;99.90
4615;DHT22;2320;51.362;6.946;2023-07-29T12:07:08;26.50;99.90
4615;DHT22;2320;51.362;6.946;2023-07-29T12:09:34;26.30;99.90
4615;DHT22;2320;51.362;6.946;2023-07-29T12:12:00;25.90;99.90
4615;DHT22;2320;51.362;6.946;2023-07-29T12:14:26;26.20;99.90
4615;DHT22;2320;51.362;6.946;2023-07-29T12:16:52;26.70;99.90
4615;DHT22;2320;51.362;6.946;2023-07-29T12:19:18;26.90;99.90
4615;DHT22;2320;51.362;6.946;2023-07-29T12:21:44;26.90;99.90
4615;DHT22;2320;51.362;6.946;2023-07-29T12:24:12;27.10;99.90
4615;DHT22;2320;51.362;6.946;2023-07-29T12:26:37;26.90;99.90
4615;DHT22;2320;51.362;6.946;2023-07-29T12:29:16;26.60;99.90
4615;DHT22;2320;51.362;6.946;2023-07-29T12:31:42;26.40;99.90
4615;DHT22;2320;51.362;6.946;2023-07-29T12:34:07;26.30;99.90
4615;DHT22;2320;51.362;6.946;2023-07-29T12:36:43;26.10;99.90
4615;DHT22;2320;51.362;6.946;2023-07-29T12:39:22;26.20;99.90
4615;DHT22;2320;51.362;6.946;2023-07-29T12:41:48;26.10;99.90
4615;DHT22;2320;51.362;6.946;2023-07-29T12:44:13;26.10;99.90
4615;DHT22;2320;51.362;6.946;2023-07-29T12:46:39;25.90;99.90
4615;DHT22;2320;51.362;6.946;2023-07-29T12:49:04;25.90;99.90
4615;DHT22;2320;51.362;6.946;2023-07-29T12:51:30;26.30;99.90
4615;DHT22;2320;51.362;6.946;2023-07-29T12:53:55;26.60;99.90
4615;DHT22;2320;51.362;6.946;2023-07-29T12:56:21;26.50;99.90
4615;DHT22;2320;51.362;6.946;2023-07-29T12:58:46;26.70;99.90
4615;DHT22;2320;51.362;6.946;2023-07-29T13:01:12;26.60;99.90
4615;DHT22;2320;51.362;6.946;2023-07-29T13:03:43;26.80;99.90
4615;DHT22;2320;51.362;6.946;2023-07-29T13:06:08;27.00;99.90
4615;DHT22;2320;51.362;6.946;2023-07-29T13:08:34;27.00;99.90
4615;DHT22;2320;51.362;6.946;2023-07-29T13:10:59;26.90;99.90
4615;DHT22;2320;51.362;6.946;2023-07-29T13:13:25;27.20;99.90
4615;DHT22;2320;51.362;6.946;2023-07-29T13:15:50;27.30;99.90
4615;DHT22;2320;51.362;6.946;2023-07-29T13:18:16;26.80;99.90
4615;DHT22;2320;51.362;6.946;2023-07-29T13:20:41;26.70;99.90
4615;DHT22;2320;51.362;6.946;2023-07-29T13:23:07;26.40;99.90
4615;DHT22;2320;51.362;6.946;2023-07-29T13:25:32;26.60;99.90
4615;DHT22;2320;51.362;6.946;2023-07-29T13:27:58;26.80;99.90
4615;DHT22;2320;51.362;6.946;2023-07-29T13:30:23;26.80;99.90
4615;DHT22;2320;51.362;6.946;2023-07-29T13:32:49;26.90;99.90
4615;DHT22;2320;51.362;6.946;2023-07-29T13:35:14;26.60;99.90
4615;DHT22;2320;51.362;6.946;2023-07-29T13:37:39;26.60;99.90
4615;DHT22;2320;51.362;6.946;2023-07-29T13:40:05;26.40;99.90
4615;DHT22;2320;51.362;6.946;2023-07-29T13:42:31;26.30;99.90
4615;DHT22;2320;51.362;6.946;2023-07-29T13:44:56;26.00;99.90
4615;DHT22;2320;51.362;6.946;2023-07-29T13:47:22;25.60;99.90
4615;DHT22;2320;51.362;6.946;2023-07-29T13:49:47;25.50;99.90
4615;DHT22;2320;51.362;6.946;2023-07-29T13:52:13;25.30;99.90
4615;DHT22;2320;51.362;6.946;2023-07-29T13:54:39;25.00;99.90
4615;DHT22;2320;51.362;6.946;2023-07-29T13:57:04;24.30;99.90
4615;DHT22;2320;51.362;6.946;2023-07-29T13:59:32;23.50;99.90
4615;DHT22;2320;51.362;6.946;2023-07-29T14:01:57;23.00;99.90
4615;DHT22;2320;51.362;6.946;2023-07-29T14:04:23;22.50;99.90
4615;DHT22;2320;51.362;6.946;2023-07-29T14:06:48;22.30;99.90
4615;DHT22;2320;51.362;6.946;2023-07-29T14:09:13;22.20;99.90
4615;DHT22;2320;51.362;6.946;2023-07-29T14:11:39;22.10;99.90
4615;DHT22;2320;51.362;6.946;2023-07-29T14:14:04;22.00;99.90
4615;DHT22;2320;51.362;6.946;2023-07-29T14:16:30;21.90;99.90
4615;DHT22;2320;51.362;6.946;2023-07-29T14:18:55;21.90;99.90
4615;DHT22;2320;51.362;6.946;2023-07-29T14:21:21;21.90;99.90
4615;DHT22;2320;51.362;6.946;2023-07-29T14:23:46;22.20;99.90
4615;DHT22;2320;51.362;6.946;2023-07-29T14:26:11;22.50;99.90
4615;DHT22;2320;51.362;6.946;2023-07-29T14:28:37;22.90;99.90
4615;DHT22;2320;51.362;6.946;2023-07-29T14:31:02;23.40;99.90
4615;DHT22;2320;51.362;6.946;2023-07-29T14:33:28;23.90;99.90
4615;DHT22;2320;51.362;6.946;2023-07-29T14:35:53;24.10;99.90
4615;DHT22;2320;51.362;6.946;2023-07-29T14:38:19;24.30;99.90
4615;DHT22;2320;51.362;6.946;2023-07-29T14:40:47;24.50;99.90
4615;DHT22;2320;51.362;6.946;2023-07-29T14:43:13;24.50;99.90
4615;DHT22;2320;51.362;6.946;2023-07-29T14:45:38;24.30;99.90
4615;DHT22;2320;51.362;6.946;2023-07-29T14:48:03;24.30;99.90
4615;DHT22;2320;51.362;6.946;2023-07-29T14:50:30;24.30;99.90
4615;DHT22;2320;51.362;6.946;2023-07-29T14:52:55;24.00;99.90
4615;DHT22;2320;51.362;6.946;2023-07-29T14:55:20;23.90;99.90
4615;DHT22;2320;51.362;6.946;2023-07-29T14:57:46;23.70;99.90
4615;DHT22;2320;51.362;6.946;2023-07-29T15:00:11;23.60;99.90
4615;DHT22;2320;51.362;6.946;2023-07-29T15:02:37;23.60;99.90
4615;DHT22;2320;51.362;6.946;2023-07-29T15:05:03;23.40;99.90
4615;DHT22;2320;51.362;6.946;2023-07-29T15:07:28;23.30;99.90
4615;DHT22;2320;51.362;6.946;2023-07-29T15:09:54;23.30;99.90
4615;DHT22;2320;51.362;6.946;2023-07-29T15:12:19;23.20;99.90
4615;DHT22;2320;51.362;6.946;2023-07-29T15:14:45;23.30;99.90
4615;DHT22;2320;51.362;6.946;2023-07-29T15:17:12;23.50;99.90
4615;DHT22;2320;51.362;6.946;2023-07-29T15:19:38;23.40;99.90
4615;DHT22;2320;51.362;6.946;2023-07-29T15:22:03;23.60;99.90
4615;DHT22;2320;51.362;6.946;2023-07-29T15:24:30;23.70;99.90
4615;DHT22;2320;51.362;6.946;2023-07-29T15:26:55;23.90;99.90
4615;DHT22;2320;51.362;6.946;2023-07-29T15:29:21;24.10;99.90
4615;DHT22;2320;51.362;6.946;2023-07-29T15:31:46;24.10;99.90
4615;DHT22;2320;51.362;6.946;2023-07-29T15:34:12;24.10;99.90
4615;DHT22;2320;51.362;6.946;2023-07-29T15:36:37;24.20;99.90
4615;DHT22;2320;51.362;6.946;2023-07-29T15:39:03;24.30;99.90
4615;DHT22;2320;51.362;6.946;2023-07-29T15:41:31;24.40;99.90
4615;DHT22;2320;51.362;6.946;2023-07-29T15:43:56;24.50;99.90
4615;DHT22;2320;51.362;6.946;2023-07-29T15:46:21;24.50;99.90
4615;DHT22;2320;51.362;6.946;2023-07-29T15:48:47;24.60;99.90
4615;DHT22;2320;51.362;6.946;2023-07-29T15:51:12;24.50;99.90
4615;DHT22;2320;51.362;6.946;2023-07-29T15:53:38;24.40;99.90
4615;DHT22;2320;51.362;6.946;2023-07-29T15:56:03;24.40;99.90
4615;DHT22;2320;51.362;6.946;2023-07-29T15:58:29;24.40;99.90
4615;DHT22;2320;51.362;6.946;2023-07-29T16:00:54;24.40;99.90
4615;DHT22;2320;51.362;6.946;2023-07-29T16:03:20;24.30;99.90